sensor_id;sensor_type;location;lat;lon;timestamp;P1;durP1;ratioP1;P2;durP2;ratioP2
61085;SDS011;46967;48.876;2.136;2022-11-20T00:00:37;7.57;;;3.70;;
61085;SDS011;46967;48.876;2.136;2022-11-20T00:03:03;7.45;;;2.80;;
61085;SDS011;46967;48.876;2.136;2022-11-20T00:05:28;6.70;;;2.60;;
61085;SDS011;46967;48.876;2.136;2022-11-20T00:07:53;7.45;;;2.80;;
61085;SDS011;46967;48.876;2.136;2022-11-20T00:10:19;7.78;;;3.17;;
61085;SDS011;46967;48.876;2.136;2022-11-20T00:12:44;10.88;;;3.13;;
61085;SDS011;46967;48.876;2.136;2022-11-20T00:15:09;9.02;;;2.85;;
61085;SDS011;46967;48.876;2.136;2022-11-20T00:17:35;6.85;;;3.25;;
61085;SDS011;46967;48.876;2.136;2022-11-20T00:20:00;6.35;;;2.78;;
61085;SDS011;46967;48.876;2.136;2022-11-20T00:22:25;8.32;;;3.00;;
61085;SDS011;46967;48.876;2.136;2022-11-20T00:24:51;7.95;;;2.97;;
61085;SDS011;46967;48.876;2.136;2022-11-20T00:27:16;9.23;;;3.50;;
61085;SDS011;46967;48.876;2.136;2022-11-20T00:29:41;8.98;;;3.05;;
61085;SDS011;46967;48.876;2.136;2022-11-20T00:32:07;9.32;;;3.33;;
61085;SDS011;46967;48.876;2.136;2022-11-20T00:34:32;9.32;;;3.88;;
61085;SDS011;46967;48.876;2.136;2022-11-20T00:36:57;15.30;;;3.92;;
61085;SDS011;46967;48.876;2.136;2022-11-20T00:39:23;9.32;;;3.40;;
61085;SDS011;46967;48.876;2.136;2022-11-20T00:41:48;10.93;;;3.78;;
61085;SDS011;46967;48.876;2.136;2022-11-20T00:44:13;5.05;;;2.17;;
61085;SDS011;46967;48.876;2.136;2022-11-20T00:46:39;12.77;;;2.50;;
61085;SDS011;46967;48.876;2.136;2022-11-20T00:49:04;10.52;;;2.35;;
61085;SDS011;46967;48.876;2.136;2022-11-20T00:51:29;7.40;;;2.30;;
61085;SDS011;46967;48.876;2.136;2022-11-20T00:53:55;7.38;;;2.42;;
61085;SDS011;46967;48.876;2.136;2022-11-20T00:56:21;5.15;;;1.73;;
61085;SDS011;46967;48.876;2.136;2022-11-20T00:58:47;4.32;;;1.83;;
61085;SDS011;46967;48.876;2.136;2022-11-20T01:01:18;6.80;;;2.60;;
61085;SDS011;46967;48.876;2.136;2022-11-20T01:03:46;8.13;;;2.42;;
61085;SDS011;46967;48.876;2.136;2022-11-20T01:06:23;5.75;;;2.72;;
61085;SDS011;46967;48.876;2.136;2022-11-20T01:08:50;5.68;;;2.90;;
61085;SDS011;46967;48.876;2.136;2022-11-20T01:11:18;7.50;;;2.72;;
61085;SDS011;46967;48.876;2.136;2022-11-20T01:13:46;7.07;;;2.50;;
61085;SDS011;46967;48.876;2.136;2022-11-20T01:16:14;7.03;;;2.53;;
61085;SDS011;46967;48.876;2.136;2022-11-20T01:18:43;6.22;;;2.47;;
61085;SDS011;46967;48.876;2.136;2022-11-20T01:21:11;9.05;;;3.20;;
61085;SDS011;46967;48.876;2.136;2022-11-20T01:23:39;7.82;;;2.25;;
61085;SDS011;46967;48.876;2.136;2022-11-20T01:26:07;6.25;;;1.63;;
61085;SDS011;46967;48.876;2.136;2022-11-20T01:28:34;10.27;;;1.48;;
61085;SDS011;46967;48.876;2.136;2022-11-20T01:31:01;5.97;;;1.80;;
61085;SDS011;46967;48.876;2.136;2022-11-20T01:33:26;5.72;;;1.98;;
61085;SDS011;46967;48.876;2.136;2022-11-20T01:35:52;5.70;;;1.80;;
61085;SDS011;46967;48.876;2.136;2022-11-20T01:38:18;6.43;;;1.75;;
61085;SDS011;46967;48.876;2.136;2022-11-20T01:40:45;5.10;;;1.45;;
61085;SDS011;46967;48.876;2.136;2022-11-20T01:43:19;5.35;;;1.52;;
61085;SDS011;46967;48.876;2.136;2022-11-20T01:48:30;7.25;;;1.85;;
61085;SDS011;46967;48.876;2.136;2022-11-20T01:51:06;5.63;;;1.88;;
61085;SDS011;46967;48.876;2.136;2022-11-20T01:53:37;4.85;;;1.63;;
61085;SDS011;46967;48.876;2.136;2022-11-20T01:56:04;8.73;;;1.92;;
61085;SDS011;46967;48.876;2.136;2022-11-20T01:58:35;4.85;;;1.90;;
61085;SDS011;46967;48.876;2.136;2022-11-20T02:01:03;3.53;;;1.55;;
61085;SDS011;46967;48.876;2.136;2022-11-20T02:03:29;8.45;;;1.90;;
61085;SDS011;46967;48.876;2.136;2022-11-20T02:05:58;8.70;;;2.40;;
61085;SDS011;46967;48.876;2.136;2022-11-20T02:08:44;8.07;;;2.40;;
61085;SDS011;46967;48.876;2.136;2022-11-20T02:11:09;11.52;;;2.03;;
61085;SDS011;46967;48.876;2.136;2022-11-20T02:13:35;4.68;;;1.90;;
61085;SDS011;46967;48.876;2.136;2022-11-20T02:16:13;7.15;;;2.45;;
61085;SDS011;46967;48.876;2.136;2022-11-20T02:18:39;5.50;;;2.20;;
61085;SDS011;46967;48.876;2.136;2022-11-20T02:21:07;4.80;;;1.90;;
61085;SDS011;46967;48.876;2.136;2022-11-20T02:23:39;4.82;;;1.85;;
61085;SDS011;46967;48.876;2.136;2022-11-20T02:26:17;6.75;;;1.60;;
61085;SDS011;46967;48.876;2.136;2022-11-20T02:28:45;5.93;;;1.60;;
61085;SDS011;46967;48.876;2.136;2022-11-20T02:31:11;4.80;;;1.20;;
61085;SDS011;46967;48.876;2.136;2022-11-20T02:33:36;4.10;;;1.50;;
61085;SDS011;46967;48.876;2.136;2022-11-20T02:36:01;7.50;;;1.85;;
61085;SDS011;46967;48.876;2.136;2022-11-20T02:38:27;6.38;;;1.50;;
61085;SDS011;46967;48.876;2.136;2022-11-20T02:40:52;5.55;;;1.60;;
61085;SDS011;46967;48.876;2.136;2022-11-20T02:43:17;5.38;;;1.42;;
61085;SDS011;46967;48.876;2.136;2022-11-20T02:45:43;4.07;;;1.48;;
61085;SDS011;46967;48.876;2.136;2022-11-20T02:48:08;6.07;;;1.38;;
61085;SDS011;46967;48.876;2.136;2022-11-20T02:50:36;4.57;;;1.58;;
61085;SDS011;46967;48.876;2.136;2022-11-20T02:53:02;7.22;;;2.00;;
61085;SDS011;46967;48.876;2.136;2022-11-20T02:55:27;5.68;;;1.70;;
61085;SDS011;46967;48.876;2.136;2022-11-20T02:57:52;3.63;;;1.15;;
61085;SDS011;46967;48.876;2.136;2022-11-20T03:00:18;8.38;;;1.55;;
61085;SDS011;46967;48.876;2.136;2022-11-20T03:02:43;4.90;;;1.55;;
61085;SDS011;46967;48.876;2.136;2022-11-20T03:05:09;4.65;;;1.65;;
61085;SDS011;46967;48.876;2.136;2022-11-20T03:07:34;6.20;;;1.50;;
61085;SDS011;46967;48.876;2.136;2022-11-20T03:09:59;5.47;;;1.70;;
61085;SDS011;46967;48.876;2.136;2022-11-20T03:12:25;4.82;;;1.50;;
61085;SDS011;46967;48.876;2.136;2022-11-20T03:14:50;6.05;;;1.40;;
61085;SDS011;46967;48.876;2.136;2022-11-20T03:17:15;4.78;;;1.75;;
61085;SDS011;46967;48.876;2.136;2022-11-20T03:19:41;2.78;;;1.25;;
61085;SDS011;46967;48.876;2.136;2022-11-20T03:22:06;6.53;;;1.40;;
61085;SDS011;46967;48.876;2.136;2022-11-20T03:24:32;2.95;;;1.25;;
61085;SDS011;46967;48.876;2.136;2022-11-20T03:26:57;6.35;;;1.55;;
61085;SDS011;46967;48.876;2.136;2022-11-20T03:29:22;5.10;;;1.58;;
61085;SDS011;46967;48.876;2.136;2022-11-20T03:31:48;6.85;;;1.67;;
61085;SDS011;46967;48.876;2.136;2022-11-20T03:34:13;4.38;;;1.70;;
61085;SDS011;46967;48.876;2.136;2022-11-20T03:36:39;5.82;;;1.30;;
61085;SDS011;46967;48.876;2.136;2022-11-20T03:39:05;6.95;;;1.60;;
61085;SDS011;46967;48.876;2.136;2022-11-20T03:41:31;6.00;;;1.63;;
61085;SDS011;46967;48.876;2.136;2022-11-20T03:44:01;4.90;;;1.42;;
61085;SDS011;46967;48.876;2.136;2022-11-20T03:46:28;4.72;;;1.50;;
61085;SDS011;46967;48.876;2.136;2022-11-20T03:48:54;11.43;;;1.88;;
61085;SDS011;46967;48.876;2.136;2022-11-20T03:51:20;7.70;;;1.42;;
61085;SDS011;46967;48.876;2.136;2022-11-20T03:53:48;6.57;;;1.60;;
61085;SDS011;46967;48.876;2.136;2022-11-20T03:56:14;5.90;;;1.55;;
61085;SDS011;46967;48.876;2.136;2022-11-20T03:58:41;2.88;;;1.13;;
61085;SDS011;46967;48.876;2.136;2022-11-20T04:03:34;6.25;;;1.70;;
61085;SDS011;46967;48.876;2.136;2022-11-20T04:06:03;6.72;;;1.80;;
61085;SDS011;46967;48.876;2.136;2022-11-20T04:08:30;10.30;;;2.22;;
61085;SDS011;46967;48.876;2.136;2022-11-20T04:10:56;5.70;;;1.85;;
61085;SDS011;46967;48.876;2.136;2022-11-20T04:13:21;7.30;;;1.70;;
61085;SDS011;46967;48.876;2.136;2022-11-20T04:15:47;5.28;;;1.73;;
61085;SDS011;46967;48.876;2.136;2022-11-20T04:18:12;4.97;;;1.60;;
61085;SDS011;46967;48.876;2.136;2022-11-20T04:20:37;5.85;;;1.60;;
61085;SDS011;46967;48.876;2.136;2022-11-20T04:23:03;7.03;;;1.67;;
61085;SDS011;46967;48.876;2.136;2022-11-20T04:25:28;6.07;;;1.67;;
61085;SDS011;46967;48.876;2.136;2022-11-20T04:27:54;5.53;;;1.70;;
61085;SDS011;46967;48.876;2.136;2022-11-20T04:30:19;4.03;;;1.42;;
61085;SDS011;46967;48.876;2.136;2022-11-20T04:32:44;3.25;;;1.50;;
61085;SDS011;46967;48.876;2.136;2022-11-20T04:35:10;5.38;;;1.55;;
61085;SDS011;46967;48.876;2.136;2022-11-20T04:37:35;4.45;;;1.40;;
61085;SDS011;46967;48.876;2.136;2022-11-20T04:40:00;3.42;;;1.60;;
61085;SDS011;46967;48.876;2.136;2022-11-20T04:42:26;5.72;;;1.60;;
61085;SDS011;46967;48.876;2.136;2022-11-20T04:44:54;4.32;;;1.90;;
61085;SDS011;46967;48.876;2.136;2022-11-20T04:47:20;4.97;;;1.67;;
61085;SDS011;46967;48.876;2.136;2022-11-20T04:49:45;5.95;;;2.08;;
61085;SDS011;46967;48.876;2.136;2022-11-20T04:52:11;3.67;;;1.63;;
61085;SDS011;46967;48.876;2.136;2022-11-20T04:54:36;5.25;;;1.60;;
61085;SDS011;46967;48.876;2.136;2022-11-20T04:57:01;6.55;;;1.60;;
61085;SDS011;46967;48.876;2.136;2022-11-20T04:59:27;10.30;;;2.33;;
61085;SDS011;46967;48.876;2.136;2022-11-20T05:01:52;5.15;;;1.55;;
61085;SDS011;46967;48.876;2.136;2022-11-20T05:04:17;4.47;;;1.50;;
61085;SDS011;46967;48.876;2.136;2022-11-20T05:06:43;6.43;;;1.70;;
61085;SDS011;46967;48.876;2.136;2022-11-20T05:09:10;4.55;;;1.70;;
61085;SDS011;46967;48.876;2.136;2022-11-20T05:11:36;9.35;;;2.13;;
61085;SDS011;46967;48.876;2.136;2022-11-20T05:14:01;5.18;;;1.73;;
61085;SDS011;46967;48.876;2.136;2022-11-20T05:16:26;3.20;;;1.60;;
61085;SDS011;46967;48.876;2.136;2022-11-20T05:18:52;3.17;;;1.65;;
61085;SDS011;46967;48.876;2.136;2022-11-20T05:21:19;4.15;;;1.60;;
61085;SDS011;46967;48.876;2.136;2022-11-20T05:23:45;3.83;;;1.73;;
61085;SDS011;46967;48.876;2.136;2022-11-20T05:26:12;7.13;;;1.48;;
61085;SDS011;46967;48.876;2.136;2022-11-20T05:28:40;6.73;;;1.73;;
61085;SDS011;46967;48.876;2.136;2022-11-20T05:31:10;6.00;;;1.60;;
61085;SDS011;46967;48.876;2.136;2022-11-20T05:33:39;5.13;;;1.48;;
61085;SDS011;46967;48.876;2.136;2022-11-20T05:36:06;6.28;;;2.28;;
61085;SDS011;46967;48.876;2.136;2022-11-20T05:38:31;4.47;;;1.85;;
61085;SDS011;46967;48.876;2.136;2022-11-20T05:41:06;6.72;;;1.70;;
61085;SDS011;46967;48.876;2.136;2022-11-20T05:43:36;4.53;;;1.40;;
61085;SDS011;46967;48.876;2.136;2022-11-20T05:46:03;3.22;;;1.67;;
61085;SDS011;46967;48.876;2.136;2022-11-20T05:48:31;5.25;;;1.85;;
61085;SDS011;46967;48.876;2.136;2022-11-20T05:50:57;7.32;;;1.85;;
61085;SDS011;46967;48.876;2.136;2022-11-20T05:53:24;3.45;;;1.42;;
61085;SDS011;46967;48.876;2.136;2022-11-20T05:56:04;8.40;;;1.85;;
61085;SDS011;46967;48.876;2.136;2022-11-20T05:58:41;6.07;;;1.55;;
61085;SDS011;46967;48.876;2.136;2022-11-20T06:01:07;7.25;;;1.98;;
61085;SDS011;46967;48.876;2.136;2022-11-20T06:03:38;3.00;;;1.70;;
61085;SDS011;46967;48.876;2.136;2022-11-20T06:06:04;4.82;;;1.80;;
61085;SDS011;46967;48.876;2.136;2022-11-20T06:08:30;5.47;;;1.90;;
61085;SDS011;46967;48.876;2.136;2022-11-20T06:10:56;4.53;;;1.90;;
61085;SDS011;46967;48.876;2.136;2022-11-20T06:13:22;4.70;;;1.60;;
61085;SDS011;46967;48.876;2.136;2022-11-20T06:15:48;7.05;;;1.90;;
61085;SDS011;46967;48.876;2.136;2022-11-20T06:18:15;4.32;;;1.70;;
61085;SDS011;46967;48.876;2.136;2022-11-20T06:20:40;3.78;;;1.60;;
61085;SDS011;46967;48.876;2.136;2022-11-20T06:23:05;6.03;;;1.80;;
61085;SDS011;46967;48.876;2.136;2022-11-20T06:25:31;4.13;;;1.50;;
61085;SDS011;46967;48.876;2.136;2022-11-20T06:27:56;5.30;;;1.88;;
61085;SDS011;46967;48.876;2.136;2022-11-20T06:30:21;4.70;;;1.65;;
61085;SDS011;46967;48.876;2.136;2022-11-20T06:32:46;8.10;;;1.60;;
61085;SDS011;46967;48.876;2.136;2022-11-20T06:35:12;5.70;;;1.45;;
61085;SDS011;46967;48.876;2.136;2022-11-20T06:37:37;5.60;;;1.63;;
61085;SDS011;46967;48.876;2.136;2022-11-20T06:40:03;5.60;;;1.73;;
61085;SDS011;46967;48.876;2.136;2022-11-20T06:42:28;6.95;;;2.10;;
61085;SDS011;46967;48.876;2.136;2022-11-20T06:44:54;5.00;;;1.42;;
61085;SDS011;46967;48.876;2.136;2022-11-20T06:47:19;6.32;;;2.08;;
61085;SDS011;46967;48.876;2.136;2022-11-20T06:49:44;9.35;;;2.03;;
61085;SDS011;46967;48.876;2.136;2022-11-20T06:52:10;5.78;;;1.73;;
61085;SDS011;46967;48.876;2.136;2022-11-20T06:54:35;4.85;;;1.85;;
61085;SDS011;46967;48.876;2.136;2022-11-20T06:57:00;6.68;;;1.80;;
61085;SDS011;46967;48.876;2.136;2022-11-20T06:59:26;6.93;;;1.85;;
61085;SDS011;46967;48.876;2.136;2022-11-20T07:01:51;6.03;;;1.73;;
61085;SDS011;46967;48.876;2.136;2022-11-20T07:04:16;5.90;;;1.92;;
61085;SDS011;46967;48.876;2.136;2022-11-20T07:06:42;8.00;;;2.00;;
61085;SDS011;46967;48.876;2.136;2022-11-20T07:09:07;6.10;;;2.10;;
61085;SDS011;46967;48.876;2.136;2022-11-20T07:11:32;5.10;;;1.95;;
61085;SDS011;46967;48.876;2.136;2022-11-20T07:13:58;3.90;;;1.48;;
61085;SDS011;46967;48.876;2.136;2022-11-20T07:16:23;5.22;;;2.03;;
61085;SDS011;46967;48.876;2.136;2022-11-20T07:18:48;6.88;;;1.73;;
61085;SDS011;46967;48.876;2.136;2022-11-20T07:21:14;10.45;;;2.55;;
61085;SDS011;46967;48.876;2.136;2022-11-20T07:23:39;3.90;;;1.67;;
61085;SDS011;46967;48.876;2.136;2022-11-20T07:26:09;6.82;;;1.73;;
61085;SDS011;46967;48.876;2.136;2022-11-20T07:28:36;4.15;;;1.80;;
61085;SDS011;46967;48.876;2.136;2022-11-20T07:31:02;6.35;;;1.90;;
61085;SDS011;46967;48.876;2.136;2022-11-20T07:33:28;6.45;;;1.25;;
61085;SDS011;46967;48.876;2.136;2022-11-20T07:35:53;3.72;;;1.58;;
61085;SDS011;46967;48.876;2.136;2022-11-20T07:38:18;6.90;;;1.67;;
61085;SDS011;46967;48.876;2.136;2022-11-20T07:40:44;6.47;;;1.52;;
61085;SDS011;46967;48.876;2.136;2022-11-20T07:43:09;5.32;;;1.40;;
61085;SDS011;46967;48.876;2.136;2022-11-20T07:45:34;6.38;;;1.83;;
61085;SDS011;46967;48.876;2.136;2022-11-20T07:48:00;5.22;;;1.75;;
61085;SDS011;46967;48.876;2.136;2022-11-20T07:50:25;7.20;;;2.65;;
61085;SDS011;46967;48.876;2.136;2022-11-20T07:52:51;6.20;;;1.40;;
61085;SDS011;46967;48.876;2.136;2022-11-20T07:55:17;5.32;;;1.90;;
61085;SDS011;46967;48.876;2.136;2022-11-20T07:57:42;4.03;;;1.40;;
61085;SDS011;46967;48.876;2.136;2022-11-20T08:00:09;7.03;;;1.80;;
61085;SDS011;46967;48.876;2.136;2022-11-20T08:02:38;3.45;;;1.40;;
61085;SDS011;46967;48.876;2.136;2022-11-20T08:05:05;4.13;;;1.60;;
61085;SDS011;46967;48.876;2.136;2022-11-20T08:07:37;4.97;;;2.00;;
61085;SDS011;46967;48.876;2.136;2022-11-20T08:10:08;4.40;;;1.85;;
61085;SDS011;46967;48.876;2.136;2022-11-20T08:12:35;5.97;;;1.85;;
61085;SDS011;46967;48.876;2.136;2022-11-20T08:15:19;7.00;;;1.90;;
61085;SDS011;46967;48.876;2.136;2022-11-20T08:17:45;5.28;;;1.90;;
61085;SDS011;46967;48.876;2.136;2022-11-20T08:20:10;5.45;;;1.67;;
61085;SDS011;46967;48.876;2.136;2022-11-20T08:22:36;4.20;;;2.00;;
61085;SDS011;46967;48.876;2.136;2022-11-20T08:25:01;9.57;;;2.75;;
61085;SDS011;46967;48.876;2.136;2022-11-20T08:27:27;7.05;;;2.20;;
61085;SDS011;46967;48.876;2.136;2022-11-20T08:29:52;5.53;;;1.90;;
61085;SDS011;46967;48.876;2.136;2022-11-20T08:32:18;4.45;;;2.10;;
61085;SDS011;46967;48.876;2.136;2022-11-20T08:34:43;5.32;;;2.15;;
61085;SDS011;46967;48.876;2.136;2022-11-20T08:37:09;4.75;;;2.13;;
61085;SDS011;46967;48.876;2.136;2022-11-20T08:39:34;11.93;;;2.28;;
61085;SDS011;46967;48.876;2.136;2022-11-20T08:41:59;4.53;;;2.20;;
61085;SDS011;46967;48.876;2.136;2022-11-20T08:44:24;12.27;;;2.35;;
61085;SDS011;46967;48.876;2.136;2022-11-20T08:46:50;8.02;;;2.20;;
61085;SDS011;46967;48.876;2.136;2022-11-20T08:49:15;6.43;;;2.33;;
61085;SDS011;46967;48.876;2.136;2022-11-20T08:51:41;7.05;;;1.90;;
61085;SDS011;46967;48.876;2.136;2022-11-20T08:54:07;7.13;;;2.33;;
61085;SDS011;46967;48.876;2.136;2022-11-20T08:56:33;4.55;;;2.30;;
61085;SDS011;46967;48.876;2.136;2022-11-20T08:58:59;4.90;;;2.13;;
61085;SDS011;46967;48.876;2.136;2022-11-20T09:01:25;5.95;;;2.40;;
61085;SDS011;46967;48.876;2.136;2022-11-20T09:03:51;5.90;;;2.10;;
61085;SDS011;46967;48.876;2.136;2022-11-20T09:06:17;5.72;;;2.70;;
61085;SDS011;46967;48.876;2.136;2022-11-20T09:08:42;9.65;;;2.80;;
61085;SDS011;46967;48.876;2.136;2022-11-20T09:11:08;4.20;;;2.30;;
61085;SDS011;46967;48.876;2.136;2022-11-20T09:13:34;6.47;;;2.78;;
61085;SDS011;46967;48.876;2.136;2022-11-20T09:16:05;4.95;;;2.38;;
61085;SDS011;46967;48.876;2.136;2022-11-20T09:18:33;5.00;;;2.45;;
61085;SDS011;46967;48.876;2.136;2022-11-20T09:21:01;8.82;;;2.47;;
61085;SDS011;46967;48.876;2.136;2022-11-20T09:23:30;6.82;;;2.60;;
61085;SDS011;46967;48.876;2.136;2022-11-20T09:25:57;6.35;;;2.78;;
61085;SDS011;46967;48.876;2.136;2022-11-20T09:28:24;6.95;;;2.63;;
61085;SDS011;46967;48.876;2.136;2022-11-20T09:30:50;7.63;;;2.70;;
61085;SDS011;46967;48.876;2.136;2022-11-20T09:33:16;9.00;;;2.83;;
61085;SDS011;46967;48.876;2.136;2022-11-20T09:35:42;7.70;;;3.10;;
61085;SDS011;46967;48.876;2.136;2022-11-20T09:38:08;7.38;;;2.72;;
61085;SDS011;46967;48.876;2.136;2022-11-20T09:40:36;5.85;;;2.80;;
61085;SDS011;46967;48.876;2.136;2022-11-20T09:51:06;6.68;;;3.10;;
61085;SDS011;46967;48.876;2.136;2022-11-20T09:56:44;9.07;;;2.90;;
61085;SDS011;46967;48.876;2.136;2022-11-20T09:59:17;6.80;;;2.97;;
61085;SDS011;46967;48.876;2.136;2022-11-20T10:02:14;13.35;;;4.65;;
61085;SDS011;46967;48.876;2.136;2022-11-20T10:04:42;4.10;;;2.90;;
61085;SDS011;46967;48.876;2.136;2022-11-20T10:07:19;8.00;;;4.28;;
61085;SDS011;46967;48.876;2.136;2022-11-20T10:09:53;10.98;;;4.15;;
61085;SDS011;46967;48.876;2.136;2022-11-20T10:17:56;8.20;;;4.28;;
61085;SDS011;46967;48.876;2.136;2022-11-20T10:28:34;5.65;;;3.30;;
61085;SDS011;46967;48.876;2.136;2022-11-20T10:31:04;5.40;;;2.35;;
61085;SDS011;46967;48.876;2.136;2022-11-20T10:33:36;3.67;;;2.35;;
61085;SDS011;46967;48.876;2.136;2022-11-20T10:38:44;5.35;;;3.17;;
61085;SDS011;46967;48.876;2.136;2022-11-20T10:41:29;5.68;;;2.70;;
61085;SDS011;46967;48.876;2.136;2022-11-20T10:44:02;12.07;;;6.13;;
61085;SDS011;46967;48.876;2.136;2022-11-20T10:46:38;4.63;;;2.25;;
61085;SDS011;46967;48.876;2.136;2022-11-20T10:49:11;6.95;;;2.53;;
61085;SDS011;46967;48.876;2.136;2022-11-20T10:51:50;6.35;;;2.85;;
61085;SDS011;46967;48.876;2.136;2022-11-20T10:54:49;4.32;;;2.00;;
61085;SDS011;46967;48.876;2.136;2022-11-20T10:57:22;4.07;;;1.88;;
61085;SDS011;46967;48.876;2.136;2022-11-20T11:00:02;6.60;;;2.03;;
61085;SDS011;46967;48.876;2.136;2022-11-20T11:05:21;3.30;;;2.03;;
61085;SDS011;46967;48.876;2.136;2022-11-20T11:07:54;4.05;;;1.65;;
61085;SDS011;46967;48.876;2.136;2022-11-20T11:10:22;4.60;;;1.70;;
61085;SDS011;46967;48.876;2.136;2022-11-20T11:12:51;6.20;;;2.15;;
61085;SDS011;46967;48.876;2.136;2022-11-20T11:17:51;3.42;;;1.85;;
61085;SDS011;46967;48.876;2.136;2022-11-20T11:20:17;2.97;;;1.70;;
61085;SDS011;46967;48.876;2.136;2022-11-20T11:22:54;4.70;;;2.28;;
61085;SDS011;46967;48.876;2.136;2022-11-20T11:25:31;2.85;;;1.77;;
61085;SDS011;46967;48.876;2.136;2022-11-20T11:28:02;2.67;;;1.10;;
61085;SDS011;46967;48.876;2.136;2022-11-20T11:30:30;2.20;;;0.90;;
61085;SDS011;46967;48.876;2.136;2022-11-20T11:33:09;2.35;;;1.20;;
61085;SDS011;46967;48.876;2.136;2022-11-20T11:35:55;4.45;;;1.52;;
61085;SDS011;46967;48.876;2.136;2022-11-20T11:38:44;3.88;;;1.73;;
61085;SDS011;46967;48.876;2.136;2022-11-20T11:41:12;2.10;;;1.40;;
61085;SDS011;46967;48.876;2.136;2022-11-20T11:43:55;1.75;;;1.10;;
61085;SDS011;46967;48.876;2.136;2022-11-20T11:46:44;5.03;;;2.63;;
61085;SDS011;46967;48.876;2.136;2022-11-20T11:49:18;3.80;;;1.80;;
61085;SDS011;46967;48.876;2.136;2022-11-20T11:54:58;3.50;;;1.60;;
61085;SDS011;46967;48.876;2.136;2022-11-20T12:00:15;6.38;;;2.60;;
61085;SDS011;46967;48.876;2.136;2022-11-20T12:07:44;5.07;;;2.10;;
61085;SDS011;46967;48.876;2.136;2022-11-20T12:10:14;4.25;;;1.92;;
61085;SDS011;46967;48.876;2.136;2022-11-20T12:12:45;4.70;;;2.10;;
61085;SDS011;46967;48.876;2.136;2022-11-20T12:15:19;2.95;;;1.70;;
61085;SDS011;46967;48.876;2.136;2022-11-20T12:17:50;5.38;;;2.33;;
61085;SDS011;46967;48.876;2.136;2022-11-20T12:20:16;6.47;;;2.92;;
61085;SDS011;46967;48.876;2.136;2022-11-20T12:22:50;11.75;;;5.25;;
61085;SDS011;46967;48.876;2.136;2022-11-20T12:25:30;3.97;;;2.38;;
61085;SDS011;46967;48.876;2.136;2022-11-20T12:31:03;4.07;;;1.73;;
61085;SDS011;46967;48.876;2.136;2022-11-20T12:39:01;3.65;;;1.55;;
61085;SDS011;46967;48.876;2.136;2022-11-20T12:52:59;3.55;;;1.90;;
61085;SDS011;46967;48.876;2.136;2022-11-20T13:03:37;3.97;;;1.45;;
61085;SDS011;46967;48.876;2.136;2022-11-20T13:06:16;8.43;;;2.00;;
61085;SDS011;46967;48.876;2.136;2022-11-20T13:08:45;4.85;;;1.80;;
61085;SDS011;46967;48.876;2.136;2022-11-20T13:19:30;6.05;;;2.22;;
61085;SDS011;46967;48.876;2.136;2022-11-20T13:21:57;5.63;;;1.80;;
61085;SDS011;46967;48.876;2.136;2022-11-20T13:24:26;5.05;;;1.70;;
61085;SDS011;46967;48.876;2.136;2022-11-20T13:29:32;5.65;;;2.05;;
61085;SDS011;46967;48.876;2.136;2022-11-20T13:34:32;5.75;;;2.13;;
61085;SDS011;46967;48.876;2.136;2022-11-20T13:36:59;7.63;;;1.92;;
61085;SDS011;46967;48.876;2.136;2022-11-20T13:39:35;4.75;;;2.03;;
61085;SDS011;46967;48.876;2.136;2022-11-20T13:42:02;6.53;;;2.47;;
61085;SDS011;46967;48.876;2.136;2022-11-20T13:45:00;7.20;;;2.90;;
61085;SDS011;46967;48.876;2.136;2022-11-20T13:47:28;9.20;;;2.42;;
61085;SDS011;46967;48.876;2.136;2022-11-20T13:49:57;5.63;;;2.00;;
61085;SDS011;46967;48.876;2.136;2022-11-20T14:00:13;5.28;;;1.80;;
61085;SDS011;46967;48.876;2.136;2022-11-20T14:02:41;8.43;;;2.20;;
61085;SDS011;46967;48.876;2.136;2022-11-20T14:07:44;10.68;;;2.17;;
61085;SDS011;46967;48.876;2.136;2022-11-20T14:10:19;9.00;;;2.03;;
61085;SDS011;46967;48.876;2.136;2022-11-20T14:12:54;8.40;;;2.10;;
61085;SDS011;46967;48.876;2.136;2022-11-20T14:15:33;10.82;;;2.45;;
61085;SDS011;46967;48.876;2.136;2022-11-20T14:17:59;7.85;;;2.88;;
61085;SDS011;46967;48.876;2.136;2022-11-20T14:20:36;7.15;;;1.80;;
61085;SDS011;46967;48.876;2.136;2022-11-20T14:23:03;5.10;;;1.90;;
61085;SDS011;46967;48.876;2.136;2022-11-20T14:25:30;6.72;;;1.92;;
61085;SDS011;46967;48.876;2.136;2022-11-20T14:27:57;9.57;;;2.67;;
61085;SDS011;46967;48.876;2.136;2022-11-20T14:30:28;7.18;;;2.30;;
61085;SDS011;46967;48.876;2.136;2022-11-20T14:32:57;11.10;;;2.17;;
61085;SDS011;46967;48.876;2.136;2022-11-20T14:35:28;10.20;;;1.90;;
61085;SDS011;46967;48.876;2.136;2022-11-20T14:37:55;17.33;;;2.15;;
61085;SDS011;46967;48.876;2.136;2022-11-20T14:42:47;8.40;;;2.20;;
61085;SDS011;46967;48.876;2.136;2022-11-20T14:45:12;13.15;;;2.40;;
61085;SDS011;46967;48.876;2.136;2022-11-20T14:47:39;11.23;;;2.55;;
61085;SDS011;46967;48.876;2.136;2022-11-20T14:50:07;9.40;;;2.63;;
61085;SDS011;46967;48.876;2.136;2022-11-20T14:52:58;11.43;;;2.40;;
61085;SDS011;46967;48.876;2.136;2022-11-20T14:55:26;13.60;;;3.20;;
61085;SDS011;46967;48.876;2.136;2022-11-20T14:57:56;15.25;;;3.72;;
61085;SDS011;46967;48.876;2.136;2022-11-20T15:00:23;12.70;;;2.65;;
61085;SDS011;46967;48.876;2.136;2022-11-20T15:02:49;11.00;;;2.50;;
61085;SDS011;46967;48.876;2.136;2022-11-20T15:05:17;10.57;;;2.53;;
61085;SDS011;46967;48.876;2.136;2022-11-20T15:07:47;8.15;;;3.17;;
61085;SDS011;46967;48.876;2.136;2022-11-20T15:10:24;18.05;;;4.55;;
61085;SDS011;46967;48.876;2.136;2022-11-20T15:13:04;12.57;;;3.08;;
61085;SDS011;46967;48.876;2.136;2022-11-20T15:15:39;7.78;;;2.78;;
61085;SDS011;46967;48.876;2.136;2022-11-20T15:18:13;15.88;;;4.43;;
61085;SDS011;46967;48.876;2.136;2022-11-20T15:20:41;11.13;;;3.83;;
61085;SDS011;46967;48.876;2.136;2022-11-20T15:23:11;11.10;;;2.33;;
61085;SDS011;46967;48.876;2.136;2022-11-20T15:28:04;10.25;;;2.45;;
61085;SDS011;46967;48.876;2.136;2022-11-20T15:30:38;18.40;;;2.80;;
61085;SDS011;46967;48.876;2.136;2022-11-20T15:33:04;12.77;;;2.25;;
61085;SDS011;46967;48.876;2.136;2022-11-20T15:35:29;8.93;;;2.20;;
61085;SDS011;46967;48.876;2.136;2022-11-20T15:37:55;7.85;;;2.00;;
61085;SDS011;46967;48.876;2.136;2022-11-20T15:40:20;7.45;;;1.90;;
61085;SDS011;46967;48.876;2.136;2022-11-20T15:42:45;7.20;;;1.58;;
61085;SDS011;46967;48.876;2.136;2022-11-20T15:45:27;6.05;;;1.30;;
61085;SDS011;46967;48.876;2.136;2022-11-20T15:47:56;5.40;;;1.75;;
61085;SDS011;46967;48.876;2.136;2022-11-20T15:50:21;5.88;;;1.40;;
61085;SDS011;46967;48.876;2.136;2022-11-20T15:52:50;9.90;;;1.90;;
61085;SDS011;46967;48.876;2.136;2022-11-20T15:55:15;5.88;;;1.70;;
61085;SDS011;46967;48.876;2.136;2022-11-20T15:57:41;8.15;;;1.75;;
61085;SDS011;46967;48.876;2.136;2022-11-20T16:00:06;6.03;;;1.75;;
61085;SDS011;46967;48.876;2.136;2022-11-20T16:02:32;12.38;;;3.53;;
61085;SDS011;46967;48.876;2.136;2022-11-20T16:04:58;9.75;;;1.80;;
61085;SDS011;46967;48.876;2.136;2022-11-20T16:07:23;7.97;;;1.83;;
61085;SDS011;46967;48.876;2.136;2022-11-20T16:09:49;10.40;;;2.13;;
61085;SDS011;46967;48.876;2.136;2022-11-20T16:12:14;8.65;;;2.53;;
61085;SDS011;46967;48.876;2.136;2022-11-20T16:14:59;8.55;;;2.67;;
61085;SDS011;46967;48.876;2.136;2022-11-20T16:17:43;7.65;;;2.75;;
61085;SDS011;46967;48.876;2.136;2022-11-20T16:20:10;9.77;;;2.53;;
61085;SDS011;46967;48.876;2.136;2022-11-20T16:22:39;13.07;;;2.90;;
61085;SDS011;46967;48.876;2.136;2022-11-20T16:25:04;7.97;;;2.38;;
61085;SDS011;46967;48.876;2.136;2022-11-20T16:27:30;10.38;;;2.78;;
61085;SDS011;46967;48.876;2.136;2022-11-20T16:29:55;10.82;;;2.88;;
61085;SDS011;46967;48.876;2.136;2022-11-20T16:32:20;11.50;;;2.90;;
61085;SDS011;46967;48.876;2.136;2022-11-20T16:34:46;11.70;;;2.47;;
61085;SDS011;46967;48.876;2.136;2022-11-20T16:37:11;8.45;;;2.40;;